BTK7552 WIII-WAHI
Flight info
| Callsign | BTK7552 |
|---|---|
| Flight time | 0h 52m |
| Altitude | 31000 |
| Route | PW W17 CLP |
| Aircraft | B738/M-SDE2E3FGHIRWXY/LB1 |
Departure
| Time | 2026-05-08 18:55 |
|---|---|
| Airport | Soekarno-Hatta International Airport (WIII) |
Arrival
| Time | 2026-05-08 19:48 |
|---|---|
| Airport | Yogyakarta International Airport (WAHI) |
| Time | Latitude | Longitude | Altitude | Speed | Heading |
|---|---|---|---|---|---|
| 2026-05-08 18:33 | -6.12041 | 106.65087 | 37 ft | 0 kts | 130° |
| 2026-05-08 18:43 | -6.12032 | 106.65075 | 37 ft | 2 kts | 122° |
| 2026-05-08 18:43 | -6.12025 | 106.65060 | 37 ft | 2 kts | 110° |
| 2026-05-08 18:43 | -6.12021 | 106.65044 | 35 ft | 2 kts | 88° |
| 2026-05-08 18:43 | -6.12025 | 106.65029 | 35 ft | 2 kts | 56° |
| 2026-05-08 18:44 | -6.12036 | 106.65017 | 35 ft | 2 kts | 25° |
| 2026-05-08 18:44 | -6.12041 | 106.65015 | 36 ft | 0 kts | 13° |
| 2026-05-08 18:47 | -6.12040 | 106.65015 | 36 ft | 1 kts | 13° |
| 2026-05-08 18:47 | -6.12012 | 106.65020 | 34 ft | 8 kts | 8° |
| 2026-05-08 18:47 | -6.11950 | 106.65024 | 37 ft | 9 kts | 352° |
| 2026-05-08 18:48 | -6.11891 | 106.65005 | 38 ft | 9 kts | 338° |
| 2026-05-08 18:48 | -6.11840 | 106.65028 | 38 ft | 9 kts | 60° |
| 2026-05-08 18:48 | -6.11816 | 106.65085 | 38 ft | 9 kts | 68° |
| 2026-05-08 18:48 | -6.11790 | 106.65151 | 38 ft | 12 kts | 68° |
| 2026-05-08 18:49 | -6.11760 | 106.65226 | 38 ft | 12 kts | 68° |
| 2026-05-08 18:49 | -6.11730 | 106.65300 | 38 ft | 11 kts | 68° |
| 2026-05-08 18:49 | -6.11701 | 106.65372 | 38 ft | 11 kts | 68° |
| 2026-05-08 18:49 | -6.11674 | 106.65442 | 37 ft | 11 kts | 68° |
| 2026-05-08 18:50 | -6.11646 | 106.65510 | 37 ft | 10 kts | 68° |
| 2026-05-08 18:50 | -6.11620 | 106.65577 | 36 ft | 10 kts | 68° |
| 2026-05-08 18:50 | -6.11595 | 106.65640 | 35 ft | 10 kts | 68° |
| 2026-05-08 18:50 | -6.11568 | 106.65707 | 35 ft | 12 kts | 68° |
| 2026-05-08 18:51 | -6.11530 | 106.65802 | 37 ft | 16 kts | 68° |
| 2026-05-08 18:51 | -6.11489 | 106.65904 | 37 ft | 15 kts | 68° |
| 2026-05-08 18:51 | -6.11450 | 106.66002 | 37 ft | 15 kts | 68° |
| 2026-05-08 18:51 | -6.11410 | 106.66103 | 36 ft | 17 kts | 68° |
| 2026-05-08 18:52 | -6.11366 | 106.66214 | 37 ft | 18 kts | 69° |
| 2026-05-08 18:52 | -6.11316 | 106.66339 | 38 ft | 20 kts | 68° |
| 2026-05-08 18:52 | -6.11261 | 106.66476 | 38 ft | 23 kts | 68° |
| 2026-05-08 18:52 | -6.11200 | 106.66630 | 37 ft | 24 kts | 68° |
| 2026-05-08 18:53 | -6.11135 | 106.66792 | 38 ft | 25 kts | 68° |
| 2026-05-08 18:53 | -6.11084 | 106.66919 | 37 ft | 13 kts | 69° |
| 2026-05-08 18:53 | -6.11046 | 106.66966 | 37 ft | 0 kts | 23° |
| 2026-05-08 18:54 | -6.11026 | 106.66973 | 38 ft | 7 kts | 19° |
| 2026-05-08 18:54 | -6.10954 | 106.66944 | 37 ft | 16 kts | 310° |
| 2026-05-08 18:54 | -6.10923 | 106.66836 | 36 ft | 18 kts | 244° |
| 2026-05-08 18:55 | -6.11282 | 106.65935 | 36 ft | 134 kts | 248° |
| 2026-05-08 18:55 | -6.11682 | 106.64889 | 107 ft | 182 kts | 249° |
| 2026-05-08 18:55 | -6.12147 | 106.63682 | 777 ft | 187 kts | 255° |
| 2026-05-08 18:56 | -6.12577 | 106.62403 | 1438 ft | 197 kts | 255° |
| 2026-05-08 18:56 | -6.12719 | 106.61054 | 2042 ft | 204 kts | 286° |
| 2026-05-08 18:56 | -6.12061 | 106.59717 | 2282 ft | 226 kts | 301° |
| 2026-05-08 18:56 | -6.11308 | 106.58216 | 2483 ft | 254 kts | 294° |
| 2026-05-08 18:57 | -6.10627 | 106.56510 | 3012 ft | 268 kts | 290° |
| 2026-05-08 18:57 | -6.10211 | 106.55333 | 3553 ft | 270 kts | 289° |
| 2026-05-08 18:57 | -6.09413 | 106.52932 | 4662 ft | 276 kts | 288° |
| 2026-05-08 18:57 | -6.08542 | 106.51192 | 5384 ft | 284 kts | 312° |
| 2026-05-08 18:58 | -6.06935 | 106.50078 | 6282 ft | 282 kts | 341° |
| 2026-05-08 18:58 | -6.04995 | 106.49863 | 6974 ft | 285 kts | 10° |
| 2026-05-08 18:58 | -6.03123 | 106.50454 | 7605 ft | 286 kts | 25° |
| 2026-05-08 18:58 | -6.01467 | 106.51544 | 7796 ft | 283 kts | 52° |
| 2026-05-08 18:59 | -6.00580 | 106.53274 | 7979 ft | 284 kts | 75° |
| 2026-05-08 18:59 | -6.00199 | 106.55244 | 7974 ft | 287 kts | 83° |
| 2026-05-08 18:59 | -5.99943 | 106.57207 | 7942 ft | 286 kts | 84° |
| 2026-05-08 18:59 | -5.99698 | 106.59179 | 7937 ft | 281 kts | 84° |
| 2026-05-08 19:00 | -5.99536 | 106.60470 | 7945 ft | 280 kts | 84° |
| 2026-05-08 19:00 | -5.99196 | 106.63081 | 7949 ft | 283 kts | 84° |
| 2026-05-08 19:00 | -5.98936 | 106.65021 | 7958 ft | 285 kts | 83° |
| 2026-05-08 19:00 | -5.98666 | 106.67007 | 7953 ft | 286 kts | 83° |
| 2026-05-08 19:01 | -5.98393 | 106.68988 | 7948 ft | 285 kts | 83° |
| 2026-05-08 19:01 | -5.98118 | 106.70966 | 7940 ft | 286 kts | 83° |
| 2026-05-08 19:01 | -5.97843 | 106.72945 | 7949 ft | 286 kts | 84° |
| 2026-05-08 19:01 | -5.97565 | 106.74923 | 7946 ft | 286 kts | 83° |
| 2026-05-08 19:02 | -5.97292 | 106.76877 | 7946 ft | 286 kts | 83° |
| 2026-05-08 19:02 | -5.97015 | 106.78859 | 7963 ft | 286 kts | 84° |
| 2026-05-08 19:02 | -5.96781 | 106.80845 | 7986 ft | 285 kts | 92° |
| 2026-05-08 19:02 | -5.97368 | 106.82718 | 8462 ft | 285 kts | 128° |
| 2026-05-08 19:03 | -5.98768 | 106.84137 | 9226 ft | 288 kts | 141° |
| 2026-05-08 19:03 | -6.00336 | 106.85352 | 10078 ft | 285 kts | 143° |
| 2026-05-08 19:03 | -6.01969 | 106.86551 | 10594 ft | 299 kts | 144° |
| 2026-05-08 19:03 | -6.03725 | 106.87828 | 10786 ft | 322 kts | 144° |
| 2026-05-08 19:04 | -6.05605 | 106.89203 | 10990 ft | 342 kts | 143° |
| 2026-05-08 19:04 | -6.07551 | 106.90635 | 11465 ft | 350 kts | 143° |
| 2026-05-08 19:04 | -6.09522 | 106.92094 | 11999 ft | 357 kts | 143° |
| 2026-05-08 19:04 | -6.11526 | 106.93586 | 12626 ft | 360 kts | 143° |
| 2026-05-08 19:05 | -6.13547 | 106.95095 | 13295 ft | 361 kts | 143° |
| 2026-05-08 19:05 | -6.15574 | 106.96613 | 13893 ft | 365 kts | 142° |
| 2026-05-08 19:05 | -6.17594 | 106.98126 | 14420 ft | 368 kts | 143° |
| 2026-05-08 19:05 | -6.19662 | 106.99677 | 14950 ft | 371 kts | 143° |
| 2026-05-08 19:06 | -6.21728 | 107.01227 | 15495 ft | 373 kts | 143° |
| 2026-05-08 19:06 | -6.23821 | 107.02798 | 16059 ft | 375 kts | 143° |
| 2026-05-08 19:06 | -6.25919 | 107.04372 | 16551 ft | 378 kts | 143° |
| 2026-05-08 19:06 | -6.28016 | 107.05946 | 17012 ft | 383 kts | 143° |
| 2026-05-08 19:07 | -6.30162 | 107.07557 | 17492 ft | 386 kts | 143° |
| 2026-05-08 19:07 | -6.32323 | 107.09180 | 18007 ft | 388 kts | 143° |
| 2026-05-08 19:07 | -6.34494 | 107.10810 | 18439 ft | 391 kts | 143° |
| 2026-05-08 19:07 | -6.36664 | 107.12439 | 18843 ft | 394 kts | 143° |
| 2026-05-08 19:08 | -6.38867 | 107.14094 | 19242 ft | 397 kts | 143° |
| 2026-05-08 19:08 | -6.41088 | 107.15762 | 19652 ft | 400 kts | 143° |
| 2026-05-08 19:08 | -6.43330 | 107.17447 | 20015 ft | 403 kts | 143° |
| 2026-05-08 19:08 | -6.45586 | 107.19142 | 20400 ft | 406 kts | 143° |
| 2026-05-08 19:09 | -6.47865 | 107.20854 | 20819 ft | 407 kts | 143° |
| 2026-05-08 19:09 | -6.50103 | 107.22536 | 21337 ft | 406 kts | 142° |
| 2026-05-08 19:09 | -6.52380 | 107.24263 | 21652 ft | 411 kts | 140° |
| 2026-05-08 19:09 | -6.54425 | 107.26299 | 21907 ft | 416 kts | 129° |
| 2026-05-08 19:10 | -6.56084 | 107.28711 | 22185 ft | 421 kts | 122° |
| 2026-05-08 19:10 | -6.57625 | 107.31184 | 22564 ft | 423 kts | 122° |
| 2026-05-08 19:10 | -6.59189 | 107.33715 | 22988 ft | 423 kts | 122° |
| 2026-05-08 19:10 | -6.60739 | 107.36218 | 23285 ft | 427 kts | 122° |
| 2026-05-08 19:11 | -6.62330 | 107.38775 | 23605 ft | 429 kts | 122° |
| 2026-05-08 19:11 | -6.63930 | 107.41331 | 23893 ft | 431 kts | 122° |
| 2026-05-08 19:11 | -6.65543 | 107.43896 | 24152 ft | 434 kts | 122° |
| 2026-05-08 19:11 | -6.67144 | 107.46438 | 24426 ft | 436 kts | 122° |
| 2026-05-08 19:12 | -6.68781 | 107.49031 | 24701 ft | 439 kts | 122° |
| 2026-05-08 19:12 | -6.70427 | 107.51638 | 25012 ft | 439 kts | 122° |
| 2026-05-08 19:12 | -6.72050 | 107.54209 | 25278 ft | 441 kts | 122° |
| 2026-05-08 19:12 | -6.73701 | 107.56824 | 25562 ft | 443 kts | 122° |
| 2026-05-08 19:13 | -6.75363 | 107.59458 | 25793 ft | 445 kts | 122° |
| 2026-05-08 19:13 | -6.77030 | 107.62100 | 26037 ft | 447 kts | 122° |
| 2026-05-08 19:13 | -6.78679 | 107.64714 | 26285 ft | 449 kts | 122° |
| 2026-05-08 19:13 | -6.80357 | 107.67375 | 26528 ft | 451 kts | 122° |
| 2026-05-08 19:14 | -6.82049 | 107.70057 | 26809 ft | 452 kts | 122° |
| 2026-05-08 19:14 | -6.83741 | 107.72741 | 27053 ft | 454 kts | 122° |
| 2026-05-08 19:14 | -6.85440 | 107.75436 | 27297 ft | 456 kts | 122° |
| 2026-05-08 19:14 | -6.87121 | 107.78104 | 27567 ft | 456 kts | 122° |
| 2026-05-08 19:15 | -6.88832 | 107.80819 | 27879 ft | 456 kts | 122° |
| 2026-05-08 19:15 | -6.89959 | 107.82607 | 28122 ft | 455 kts | 122° |
| 2026-05-08 19:15 | -6.92220 | 107.86196 | 28584 ft | 454 kts | 122° |
| 2026-05-08 19:15 | -6.93895 | 107.88855 | 28897 ft | 453 kts | 122° |
| 2026-05-08 19:16 | -6.95042 | 107.90677 | 29130 ft | 453 kts | 122° |
| 2026-05-08 19:16 | -6.96708 | 107.93323 | 29468 ft | 453 kts | 122° |
| 2026-05-08 19:16 | -6.98391 | 107.95995 | 29833 ft | 452 kts | 122° |
| 2026-05-08 19:16 | -7.00082 | 107.98682 | 30129 ft | 452 kts | 122° |
| 2026-05-08 19:17 | -7.01766 | 108.01358 | 30403 ft | 452 kts | 122° |
| 2026-05-08 19:17 | -7.03449 | 108.04032 | 30686 ft | 451 kts | 122° |
| 2026-05-08 19:17 | -7.05113 | 108.06676 | 30881 ft | 452 kts | 122° |
| 2026-05-08 19:18 | -7.08489 | 108.12044 | 30884 ft | 455 kts | 122° |
| 2026-05-08 19:18 | -7.11859 | 108.17403 | 30861 ft | 449 kts | 122° |
| 2026-05-08 19:19 | -7.15212 | 108.22737 | 30882 ft | 450 kts | 122° |
| 2026-05-08 19:19 | -7.18555 | 108.28057 | 30884 ft | 451 kts | 122° |
| 2026-05-08 19:20 | -7.21901 | 108.33384 | 30869 ft | 452 kts | 122° |
| 2026-05-08 19:20 | -7.25271 | 108.38749 | 30886 ft | 453 kts | 122° |
| 2026-05-08 19:21 | -7.28644 | 108.44123 | 30859 ft | 454 kts | 122° |
| 2026-05-08 19:21 | -7.32030 | 108.49518 | 30863 ft | 454 kts | 122° |
| 2026-05-08 19:22 | -7.35395 | 108.54881 | 30869 ft | 455 kts | 122° |
| 2026-05-08 19:22 | -7.38746 | 108.60224 | 30800 ft | 444 kts | 122° |
| 2026-05-08 19:22 | -7.40379 | 108.62829 | 30585 ft | 435 kts | 122° |
| 2026-05-08 19:23 | -7.41980 | 108.65383 | 30325 ft | 427 kts | 122° |
| 2026-05-08 19:23 | -7.43568 | 108.67916 | 29929 ft | 425 kts | 122° |
| 2026-05-08 19:23 | -7.45126 | 108.70403 | 29495 ft | 422 kts | 122° |
| 2026-05-08 19:23 | -7.46690 | 108.72898 | 29048 ft | 419 kts | 122° |
| 2026-05-08 19:24 | -7.48245 | 108.75381 | 28616 ft | 415 kts | 122° |
| 2026-05-08 19:24 | -7.49784 | 108.77837 | 28193 ft | 412 kts | 122° |
| 2026-05-08 19:24 | -7.51294 | 108.80248 | 27786 ft | 409 kts | 122° |
| 2026-05-08 19:24 | -7.52807 | 108.82665 | 27375 ft | 406 kts | 122° |
| 2026-05-08 19:25 | -7.54312 | 108.85068 | 26977 ft | 403 kts | 122° |
| 2026-05-08 19:25 | -7.55805 | 108.87454 | 26578 ft | 400 kts | 122° |
| 2026-05-08 19:25 | -7.57268 | 108.89792 | 26187 ft | 398 kts | 122° |
| 2026-05-08 19:25 | -7.58741 | 108.92145 | 25792 ft | 396 kts | 122° |
| 2026-05-08 19:26 | -7.60207 | 108.94488 | 25382 ft | 394 kts | 122° |
| 2026-05-08 19:26 | -7.61668 | 108.96824 | 24983 ft | 392 kts | 122° |
| 2026-05-08 19:26 | -7.63122 | 108.99149 | 24579 ft | 391 kts | 122° |
| 2026-05-08 19:26 | -7.64573 | 109.01469 | 24175 ft | 389 kts | 122° |
| 2026-05-08 19:27 | -7.66004 | 109.03756 | 23782 ft | 388 kts | 122° |
| 2026-05-08 19:27 | -7.67444 | 109.06060 | 23379 ft | 387 kts | 122° |
| 2026-05-08 19:27 | -7.68879 | 109.08356 | 22924 ft | 385 kts | 122° |
| 2026-05-08 19:27 | -7.70292 | 109.10616 | 22516 ft | 382 kts | 122° |
| 2026-05-08 19:28 | -7.71706 | 109.12879 | 22109 ft | 379 kts | 123° |
| 2026-05-08 19:28 | -7.73109 | 109.15126 | 21722 ft | 376 kts | 123° |
| 2026-05-08 19:28 | -7.74483 | 109.17325 | 21347 ft | 373 kts | 123° |
| 2026-05-08 19:28 | -7.75863 | 109.19535 | 20967 ft | 370 kts | 123° |
| 2026-05-08 19:29 | -7.77232 | 109.21726 | 20595 ft | 367 kts | 123° |
| 2026-05-08 19:29 | -7.78592 | 109.23905 | 20219 ft | 364 kts | 123° |
| 2026-05-08 19:29 | -7.79940 | 109.26064 | 19847 ft | 362 kts | 124° |
| 2026-05-08 19:29 | -7.81278 | 109.28206 | 19476 ft | 359 kts | 123° |
| 2026-05-08 19:30 | -7.82593 | 109.30314 | 19109 ft | 358 kts | 123° |
| 2026-05-08 19:30 | -7.83917 | 109.32434 | 18751 ft | 356 kts | 124° |
| 2026-05-08 19:30 | -7.85238 | 109.34551 | 18374 ft | 354 kts | 124° |
| 2026-05-08 19:30 | -7.86546 | 109.36648 | 17996 ft | 352 kts | 124° |
| 2026-05-08 19:31 | -7.87846 | 109.38732 | 17593 ft | 350 kts | 124° |
| 2026-05-08 19:31 | -7.89128 | 109.40787 | 17211 ft | 347 kts | 123° |
| 2026-05-08 19:31 | -7.90412 | 109.42847 | 16846 ft | 344 kts | 124° |
| 2026-05-08 19:31 | -7.91688 | 109.44894 | 16481 ft | 342 kts | 124° |
| 2026-05-08 19:32 | -7.92947 | 109.46913 | 16128 ft | 339 kts | 123° |
| 2026-05-08 19:32 | -7.94204 | 109.48928 | 15780 ft | 337 kts | 123° |
| 2026-05-08 19:32 | -7.95435 | 109.50902 | 15429 ft | 335 kts | 123° |
| 2026-05-08 19:32 | -7.96672 | 109.52886 | 15089 ft | 332 kts | 124° |
| 2026-05-08 19:33 | -7.97901 | 109.54857 | 14757 ft | 330 kts | 124° |
| 2026-05-08 19:33 | -7.99121 | 109.56817 | 14403 ft | 328 kts | 123° |
| 2026-05-08 19:33 | -8.00321 | 109.58742 | 14066 ft | 326 kts | 123° |
| 2026-05-08 19:33 | -8.01527 | 109.60680 | 13726 ft | 325 kts | 123° |
| 2026-05-08 19:34 | -8.02735 | 109.62620 | 13328 ft | 325 kts | 123° |
| 2026-05-08 19:34 | -8.03938 | 109.64552 | 12975 ft | 323 kts | 123° |
| 2026-05-08 19:34 | -8.05128 | 109.66462 | 12618 ft | 321 kts | 123° |
| 2026-05-08 19:34 | -8.06297 | 109.68341 | 12279 ft | 319 kts | 123° |
| 2026-05-08 19:35 | -8.07476 | 109.70233 | 11942 ft | 317 kts | 122° |
| 2026-05-08 19:35 | -8.08643 | 109.72110 | 11604 ft | 315 kts | 122° |
| 2026-05-08 19:35 | -8.09813 | 109.73990 | 11267 ft | 313 kts | 122° |
| 2026-05-08 19:35 | -8.10955 | 109.75825 | 10940 ft | 312 kts | 122° |
| 2026-05-08 19:36 | -8.12112 | 109.77685 | 10607 ft | 311 kts | 122° |
| 2026-05-08 19:36 | -8.13260 | 109.79532 | 10281 ft | 309 kts | 122° |
| 2026-05-08 19:36 | -8.14388 | 109.81346 | 10140 ft | 301 kts | 121° |
| 2026-05-08 19:36 | -8.15491 | 109.83119 | 9990 ft | 294 kts | 121° |
| 2026-05-08 19:37 | -8.16553 | 109.84825 | 9859 ft | 286 kts | 121° |
| 2026-05-08 19:37 | -8.17592 | 109.86539 | 9569 ft | 284 kts | 115° |
| 2026-05-08 19:37 | -8.18165 | 109.88422 | 9287 ft | 280 kts | 99° |
| 2026-05-08 19:37 | -8.18540 | 109.90354 | 9003 ft | 278 kts | 101° |
| 2026-05-08 19:38 | -8.18930 | 109.92241 | 8718 ft | 277 kts | 101° |
| 2026-05-08 19:38 | -8.19337 | 109.94139 | 8425 ft | 274 kts | 102° |
| 2026-05-08 19:38 | -8.19614 | 109.96033 | 8111 ft | 272 kts | 86° |
| 2026-05-08 19:38 | -8.19071 | 109.97836 | 7845 ft | 269 kts | 58° |
| 2026-05-08 19:39 | -8.17810 | 109.99202 | 7518 ft | 272 kts | 35° |
| 2026-05-08 19:39 | -8.16079 | 109.99987 | 7174 ft | 275 kts | 14° |
| 2026-05-08 19:39 | -8.14200 | 110.00415 | 6806 ft | 279 kts | 13° |
| 2026-05-08 19:39 | -8.12256 | 110.00542 | 6418 ft | 285 kts | 349° |
| 2026-05-08 19:40 | -8.10441 | 109.99818 | 6072 ft | 283 kts | 332° |
| 2026-05-08 19:40 | -8.08759 | 109.98797 | 5671 ft | 279 kts | 330° |
| 2026-05-08 19:40 | -8.07103 | 109.97771 | 5291 ft | 276 kts | 331° |
| 2026-05-08 19:40 | -8.05470 | 109.96774 | 4936 ft | 279 kts | 330° |
| 2026-05-08 19:41 | -8.03804 | 109.95765 | 4562 ft | 278 kts | 332° |
| 2026-05-08 19:41 | -8.02134 | 109.94761 | 4196 ft | 280 kts | 332° |
| 2026-05-08 19:41 | -8.00469 | 109.93761 | 3833 ft | 276 kts | 331° |
| 2026-05-08 19:41 | -7.98816 | 109.92769 | 3474 ft | 276 kts | 331° |
| 2026-05-08 19:42 | -7.97188 | 109.91793 | 3115 ft | 271 kts | 331° |
| 2026-05-08 19:42 | -7.95592 | 109.90837 | 2769 ft | 267 kts | 332° |
| 2026-05-08 19:42 | -7.94000 | 109.89886 | 2416 ft | 264 kts | 333° |
| 2026-05-08 19:42 | -7.92339 | 109.89231 | 2200 ft | 249 kts | 351° |
| 2026-05-08 19:43 | -7.90699 | 109.88872 | 2048 ft | 233 kts | 354° |
| 2026-05-08 19:43 | -7.89178 | 109.88912 | 1827 ft | 209 kts | 26° |
| 2026-05-08 19:43 | -7.87987 | 109.89596 | 1710 ft | 187 kts | 46° |
| 2026-05-08 19:43 | -7.87139 | 109.90526 | 1600 ft | 177 kts | 59° |
| 2026-05-08 19:44 | -7.86414 | 109.91499 | 1466 ft | 173 kts | 60° |
| 2026-05-08 19:44 | -7.86012 | 109.92546 | 1351 ft | 156 kts | 100° |
| 2026-05-08 19:44 | -7.86299 | 109.93578 | 1325 ft | 154 kts | 104° |
| 2026-05-08 19:44 | -7.86524 | 109.94609 | 1333 ft | 147 kts | 108° |
| 2026-05-08 19:45 | -7.86843 | 109.95552 | 1340 ft | 138 kts | 111° |
| 2026-05-08 19:45 | -7.87169 | 109.96457 | 1348 ft | 140 kts | 111° |
| 2026-05-08 19:45 | -7.87505 | 109.97384 | 1362 ft | 136 kts | 111° |
| 2026-05-08 19:45 | -7.87828 | 109.98275 | 1236 ft | 133 kts | 112° |
| 2026-05-08 19:46 | -7.88148 | 109.99160 | 1062 ft | 134 kts | 112° |
| 2026-05-08 19:46 | -7.88465 | 110.00034 | 907 ft | 133 kts | 114° |
| 2026-05-08 19:46 | -7.89097 | 110.01778 | 589 ft | 134 kts | 113° |
| 2026-05-08 19:47 | -7.89420 | 110.02674 | 424 ft | 136 kts | 110° |
| 2026-05-08 19:47 | -7.89731 | 110.03583 | 221 ft | 134 kts | 115° |
| 2026-05-08 19:47 | -7.90069 | 110.04440 | 80 ft | 130 kts | 113° |
| 2026-05-08 19:47 | -7.90350 | 110.05232 | 19 ft | 107 kts | 113° |
| 2026-05-08 19:48 | -7.90568 | 110.05813 | 21 ft | 68 kts | 110° |
| 2026-05-08 19:48 | -7.90680 | 110.06126 | 19 ft | 24 kts | 97° |
| 2026-05-08 19:48 | -7.90656 | 110.06272 | 21 ft | 16 kts | 78° |
| 2026-05-08 19:48 | -7.90605 | 110.06350 | 19 ft | 14 kts | 357° |
| 2026-05-08 19:49 | -7.90554 | 110.06275 | 20 ft | 13 kts | 290° |
| 2026-05-08 19:49 | -7.90523 | 110.06190 | 20 ft | 13 kts | 290° |
| 2026-05-08 19:49 | -7.90490 | 110.06102 | 19 ft | 13 kts | 290° |
| 2026-05-08 19:49 | -7.90457 | 110.06011 | 19 ft | 15 kts | 290° |
| 2026-05-08 19:50 | -7.90418 | 110.05905 | 19 ft | 16 kts | 290° |
| 2026-05-08 19:50 | -7.90380 | 110.05803 | 19 ft | 13 kts | 290° |
| 2026-05-08 19:50 | -7.90320 | 110.05757 | 19 ft | 12 kts | 14° |
| 2026-05-08 19:50 | -7.90239 | 110.05785 | 20 ft | 12 kts | 24° |
| 2026-05-08 19:51 | -7.90166 | 110.05821 | 19 ft | 12 kts | 21° |
| 2026-05-08 19:51 | -7.90120 | 110.05838 | 18 ft | 0 kts | 21° |